Time;durP1;ratioP1;P1;durP2;ratioP2;P2;SDS_P1;SDS_P2;PMS_P1;PMS_P2;Temp;Humidity;BMP_temperature;BMP_pressure;BME280_temperature;BME280_humidity;BME280_pressure;Samples;Min_cycle;Max_cycle;Signal;HPM_P1;HPM_P2
2023/01/05 00:00:05;;;;;;;9.77;2.77;;;;;;;;;;4929181;29;20228;-88
2023/01/05 00:02:38;;;;;;;7.80;2.40;;;;;;;;;;4930429;29;20247;-86
2023/01/05 00:05:04;;;;;;;7.73;2.83;;;;;;;;;;4916039;29;20665;-88
2023/01/05 00:07:29;;;;;;;5.80;2.13;;;;;;;;;;4927075;29;20317;-86
2023/01/05 00:09:55;;;;;;;7.07;2.00;;;;;;;;;;4905047;29;20216;-88
2023/01/05 00:23:25;;;;;;;6.63;2.37;;;;;;;;;;4941077;28;20706;-89
2023/01/05 00:25:50;;;;;;;3.77;1.93;;;;;;;;;;4927465;29;20220;-86
2023/01/05 00:28:16;;;;;;;6.33;2.20;;;;;;;;;;4920736;29;20277;-85
2023/01/05 00:30:43;;;;;;;6.13;1.83;;;;;;;;;;4905923;29;20594;-86
2023/01/05 00:33:12;;;;;;;5.77;2.33;;;;;;;;;;4919148;29;20259;-88
2023/01/05 00:35:38;;;;;;;5.77;2.10;;;;;;;;;;4923268;29;20223;-87
2023/01/05 00:38:04;;;;;;;6.83;2.40;;;;;;;;;;4929914;29;20772;-87
2023/01/05 00:40:30;;;;;;;6.07;1.83;;;;;;;;;;4923945;29;20309;-86
2023/01/05 00:42:58;;;;;;;5.10;1.90;;;;;;;;;;4906100;29;20239;-85
2023/01/05 00:45:26;;;;;;;6.30;1.90;;;;;;;;;;4907958;29;20223;-88
2023/01/05 00:47:53;;;;;;;4.97;2.00;;;;;;;;;;4914137;29;20645;-87
2023/01/05 00:50:19;;;;;;;5.10;1.50;;;;;;;;;;4898582;29;20229;-87
2023/01/05 00:52:45;;;;;;;7.67;2.40;;;;;;;;;;4932469;28;20748;-88
2023/01/05 00:55:11;;;;;;;7.40;2.03;;;;;;;;;;4912001;29;20232;-88
2023/01/05 00:57:36;;;;;;;4.60;1.70;;;;;;;;;;4932730;28;20221;-87
2023/01/05 01:00:04;;;;;;;5.00;1.80;;;;;;;;;;4906322;29;20227;-86
2023/01/05 01:02:29;;;;;;;4.27;2.00;;;;;;;;;;4923802;29;20223;-87
2023/01/05 01:05:00;;;;;;;5.33;2.17;;;;;;;;;;4924533;29;20241;-84
2023/01/05 01:07:28;;;;;;;10.07;2.00;;;;;;;;;;4924399;29;20243;-87
2023/01/05 01:09:53;;;;;;;7.70;2.30;;;;;;;;;;4921473;29;20293;-88
2023/01/05 01:12:26;;;;;;;7.90;2.10;;;;;;;;;;4895194;29;20235;-88
2023/01/05 01:14:52;;;;;;;8.63;2.20;;;;;;;;;;4918519;29;20219;-88
2023/01/05 01:17:18;;;;;;;4.03;1.77;;;;;;;;;;4925894;29;20650;-88
2023/01/05 01:19:46;;;;;;;3.93;1.70;;;;;;;;;;4921590;28;20250;-86
2023/01/05 01:22:12;;;;;;;5.27;1.50;;;;;;;;;;4912060;29;20226;-87
2023/01/05 01:24:38;;;;;;;8.17;2.27;;;;;;;;;;4933562;28;20254;-86
2023/01/05 01:27:03;;;;;;;8.77;2.13;;;;;;;;;;4928337;29;20227;-89
2023/01/05 01:29:29;;;;;;;4.50;1.60;;;;;;;;;;4903238;28;20270;-88
2023/01/05 01:31:57;;;;;;;4.60;1.87;;;;;;;;;;4936233;29;20222;-85
2023/01/05 01:34:23;;;;;;;6.63;2.33;;;;;;;;;;4951464;28;20230;-86
2023/01/05 01:36:48;;;;;;;7.20;1.70;;;;;;;;;;4923559;29;20365;-90
2023/01/05 01:39:20;;;;;;;3.57;1.60;;;;;;;;;;4926852;28;20238;-87
2023/01/05 01:41:53;;;;;;;7.53;1.80;;;;;;;;;;4927767;29;20230;-87
2023/01/05 01:44:51;;;;;;;5.10;1.77;;;;;;;;;;4932831;29;20231;-87
2023/01/05 01:47:29;;;;;;;5.23;1.80;;;;;;;;;;4951919;29;20246;-87
2023/01/05 01:49:58;;;;;;;7.40;1.80;;;;;;;;;;4923806;28;20261;-87
2023/01/05 01:52:23;;;;;;;4.43;1.63;;;;;;;;;;4922003;28;20229;-88
2023/01/05 01:54:51;;;;;;;3.50;1.40;;;;;;;;;;4913483;29;20223;-86
2023/01/05 01:57:17;;;;;;;4.97;1.47;;;;;;;;;;4925521;28;20318;-86
2023/01/05 01:59:42;;;;;;;5.30;1.80;;;;;;;;;;4934059;29;20301;-86
2023/01/05 02:02:08;;;;;;;4.63;1.43;;;;;;;;;;4919533;29;20282;-86
2023/01/05 02:04:33;;;;;;;4.47;1.63;;;;;;;;;;4914154;28;20302;-87
2023/01/05 02:06:59;;;;;;;3.87;1.40;;;;;;;;;;4924536;29;20239;-85
2023/01/05 02:09:24;;;;;;;4.73;1.27;;;;;;;;;;4932077;29;20235;-87
2023/01/05 02:12:09;;;;;;;2.83;1.50;;;;;;;;;;4921964;29;20223;-86
2023/01/05 02:14:47;;;;;;;5.53;1.20;;;;;;;;;;4932706;29;20232;-86
2023/01/05 02:17:29;;;;;;;3.73;1.67;;;;;;;;;;4942252;29;20227;-86
2023/01/05 02:20:15;;;;;;;5.53;1.73;;;;;;;;;;4930095;29;20231;-87
2023/01/05 02:23:11;;;;;;;7.00;1.80;;;;;;;;;;4967135;28;20713;-86
2023/01/05 02:26:25;;;;;;;5.20;1.70;;;;;;;;;;4957250;28;20227;-83
2023/01/05 02:29:25;;;;;;;6.73;1.43;;;;;;;;;;4877479;29;20241;-88
2023/01/05 02:31:55;;;;;;;7.10;1.87;;;;;;;;;;4925620;29;20228;-87
2023/01/05 02:34:22;;;;;;;3.97;1.60;;;;;;;;;;4928788;29;20310;-87
2023/01/05 02:36:58;;;;;;;6.60;1.60;;;;;;;;;;4925839;29;20486;-88
2023/01/05 02:39:31;;;;;;;2.67;1.30;;;;;;;;;;4942927;29;20215;-85
2023/01/05 02:42:02;;;;;;;5.00;1.67;;;;;;;;;;4915787;29;20223;-86
2023/01/05 02:44:32;;;;;;;3.27;1.30;;;;;;;;;;4920794;28;20226;-87
2023/01/05 02:47:26;;;;;;;3.67;1.57;;;;;;;;;;4928524;28;20325;-88
2023/01/05 02:50:21;;;;;;;2.50;1.23;;;;;;;;;;4918765;28;20234;-87
2023/01/05 02:53:15;;;;;;;5.70;1.57;;;;;;;;;;4943968;28;20207;-87
2023/01/05 02:55:48;;;;;;;3.00;1.40;;;;;;;;;;4928615;29;20278;-84
2023/01/05 02:58:22;;;;;;;2.03;1.27;;;;;;;;;;4940054;29;20301;-87
2023/01/05 03:01:30;;;;;;;3.43;1.67;;;;;;;;;;4923172;29;20245;-87
2023/01/05 03:03:59;;;;;;;4.63;1.63;;;;;;;;;;4925273;29;20246;-88
2023/01/05 03:06:45;;;;;;;4.40;1.70;;;;;;;;;;4907025;29;20235;-84
2023/01/05 03:09:14;;;;;;;3.30;1.60;;;;;;;;;;4903831;29;20227;-85
2023/01/05 03:15:09;;;;;;;2.33;1.17;;;;;;;;;;4925694;29;20227;-87
2023/01/05 03:17:43;;;;;;;5.23;1.50;;;;;;;;;;4902919;29;20223;-86
2023/01/05 03:20:11;;;;;;;5.23;1.47;;;;;;;;;;4921290;28;20301;-87
2023/01/05 03:37:34;;;;;;;2.73;1.20;;;;;;;;;;4954519;29;20563;-86
2023/01/05 03:40:06;;;;;;;5.53;1.60;;;;;;;;;;4908322;29;20224;-87
2023/01/05 03:42:35;;;;;;;2.70;0.90;;;;;;;;;;4947466;29;20224;-84
2023/01/05 03:45:01;;;;;;;5.00;1.40;;;;;;;;;;4923302;29;20228;-86
2023/01/05 03:47:29;;;;;;;1.93;1.07;;;;;;;;;;4934045;29;20238;-85
2023/01/05 03:50:01;;;;;;;2.37;1.20;;;;;;;;;;4926853;28;20264;-85
2023/01/05 03:52:30;;;;;;;3.33;1.27;;;;;;;;;;4929020;29;20274;-87
2023/01/05 03:54:58;;;;;;;4.17;1.27;;;;;;;;;;4923595;29;20698;-84
2023/01/05 03:57:24;;;;;;;1.77;1.20;;;;;;;;;;4931362;29;20271;-86
2023/01/05 03:59:51;;;;;;;3.83;1.53;;;;;;;;;;4916622;29;20226;-86
2023/01/05 04:02:17;;;;;;;2.90;1.40;;;;;;;;;;4934017;29;20234;-87
2023/01/05 04:04:43;;;;;;;4.50;1.77;;;;;;;;;;4918725;29;20234;-86
2023/01/05 04:07:09;;;;;;;4.70;1.53;;;;;;;;;;4906924;29;20694;-89
2023/01/05 04:09:37;;;;;;;3.27;1.27;;;;;;;;;;4916214;29;20245;-88
2023/01/05 04:12:03;;;;;;;3.00;1.43;;;;;;;;;;4917327;29;20658;-88
2023/01/05 04:14:35;;;;;;;3.27;1.50;;;;;;;;;;4914556;28;20227;-88
2023/01/05 04:17:03;;;;;;;4.93;1.40;;;;;;;;;;4927840;29;20318;-87
2023/01/05 04:19:30;;;;;;;3.17;1.53;;;;;;;;;;4918076;29;20879;-87
2023/01/05 04:21:55;;;;;;;2.27;1.37;;;;;;;;;;4909385;29;20269;-85
2023/01/05 04:24:23;;;;;;;6.53;1.57;;;;;;;;;;4925834;29;20250;-88
2023/01/05 04:26:48;;;;;;;2.90;1.27;;;;;;;;;;4905930;29;20704;-88
2023/01/05 04:29:19;;;;;;;3.03;1.50;;;;;;;;;;4907771;29;20338;-89
2023/01/05 04:31:48;;;;;;;6.40;2.27;;;;;;;;;;4900479;29;20298;-88
2023/01/05 04:34:19;;;;;;;4.33;1.70;;;;;;;;;;4904938;29;20230;-88
2023/01/05 04:36:49;;;;;;;6.57;2.07;;;;;;;;;;4904705;29;20753;-87
2023/01/05 04:39:22;;;;;;;6.33;2.20;;;;;;;;;;4920046;29;20876;-86
2023/01/05 04:41:51;;;;;;;3.20;1.60;;;;;;;;;;4909474;29;20266;-86
2023/01/05 04:44:21;;;;;;;4.77;1.87;;;;;;;;;;4941536;29;20230;-85
2023/01/05 04:46:48;;;;;;;6.63;2.03;;;;;;;;;;4909854;29;20223;-87
2023/01/05 04:49:20;;;;;;;4.83;1.63;;;;;;;;;;4929575;29;20218;-88
2023/01/05 04:51:48;;;;;;;3.77;1.87;;;;;;;;;;4923407;29;20786;-84
2023/01/05 04:54:18;;;;;;;4.70;1.80;;;;;;;;;;4916597;29;20256;-86
2023/01/05 04:56:45;;;;;;;5.57;2.00;;;;;;;;;;4918846;29;20223;-86
2023/01/05 04:59:14;;;;;;;3.70;1.63;;;;;;;;;;4916917;29;20243;-85
2023/01/05 05:01:46;;;;;;;5.27;2.10;;;;;;;;;;4906022;29;20270;-85
2023/01/05 05:04:13;;;;;;;5.77;2.13;;;;;;;;;;4913381;29;20306;-86
2023/01/05 05:06:41;;;;;;;8.37;2.00;;;;;;;;;;4930974;29;20226;-86
2023/01/05 05:09:07;;;;;;;4.57;2.03;;;;;;;;;;4907531;29;20603;-88
2023/01/05 05:11:39;;;;;;;4.47;1.63;;;;;;;;;;4908169;29;20226;-87
2023/01/05 05:14:10;;;;;;;5.20;1.73;;;;;;;;;;4922667;29;20254;-87
2023/01/05 05:16:37;;;;;;;6.47;1.90;;;;;;;;;;4929298;29;20289;-86
2023/01/05 05:19:07;;;;;;;7.80;2.07;;;;;;;;;;4915234;29;20230;-86
2023/01/05 05:21:33;;;;;;;4.87;1.97;;;;;;;;;;4937208;28;20278;-87
2023/01/05 05:23:59;;;;;;;3.23;1.53;;;;;;;;;;4945369;29;20238;-85
2023/01/05 05:26:27;;;;;;;6.17;2.00;;;;;;;;;;4910161;29;20678;-87
2023/01/05 05:28:53;;;;;;;10.13;2.30;;;;;;;;;;4924369;29;20308;-87
2023/01/05 05:31:24;;;;;;;6.10;1.90;;;;;;;;;;4921407;28;20255;-87
2023/01/05 05:33:49;;;;;;;5.33;1.97;;;;;;;;;;4909809;29;20602;-89
2023/01/05 05:36:16;;;;;;;4.83;1.67;;;;;;;;;;4918128;29;20237;-87
2023/01/05 05:38:44;;;;;;;6.83;2.27;;;;;;;;;;4923232;29;20238;-87
2023/01/05 05:41:13;;;;;;;6.30;2.10;;;;;;;;;;4899386;29;20228;-85
2023/01/05 05:43:41;;;;;;;4.50;2.00;;;;;;;;;;4897607;29;20215;-85
2023/01/05 05:46:09;;;;;;;5.50;1.70;;;;;;;;;;4907362;29;20238;-88
2023/01/05 05:48:35;;;;;;;7.43;1.83;;;;;;;;;;4907082;29;20227;-86
2023/01/05 05:51:00;;;;;;;6.73;1.67;;;;;;;;;;4910049;28;20707;-86
2023/01/05 05:53:29;;;;;;;6.63;1.97;;;;;;;;;;4944878;28;20237;-86
2023/01/05 05:55:56;;;;;;;5.07;1.80;;;;;;;;;;4940975;28;20214;-89
2023/01/05 05:58:21;;;;;;;8.30;1.57;;;;;;;;;;4915714;29;20227;-86
2023/01/05 06:00:49;;;;;;;7.10;2.20;;;;;;;;;;4928022;29;20306;-85
2023/01/05 06:03:15;;;;;;;6.07;1.73;;;;;;;;;;4914961;29;20270;-86
2023/01/05 06:05:43;;;;;;;4.30;1.53;;;;;;;;;;4934167;29;20840;-87
2023/01/05 06:08:09;;;;;;;5.73;1.70;;;;;;;;;;4923506;29;20236;-90
2023/01/05 06:10:34;;;;;;;4.47;1.93;;;;;;;;;;4928916;29;20274;-89
2023/01/05 06:13:00;;;;;;;5.30;1.83;;;;;;;;;;4926517;28;20299;-90
2023/01/05 06:15:25;;;;;;;5.70;1.77;;;;;;;;;;4943549;28;20222;-85
2023/01/05 06:17:51;;;;;;;7.07;1.83;;;;;;;;;;4939030;28;20280;-82
2023/01/05 06:20:18;;;;;;;5.20;1.83;;;;;;;;;;4925009;28;20214;-87
2023/01/05 06:22:51;;;;;;;7.37;2.20;;;;;;;;;;4943232;28;20231;-83
2023/01/05 06:25:21;;;;;;;6.30;1.70;;;;;;;;;;4933007;28;20254;-87
2023/01/05 06:27:49;;;;;;;5.17;1.97;;;;;;;;;;4929558;29;20279;-84
2023/01/05 06:30:15;;;;;;;6.73;2.00;;;;;;;;;;4936226;28;20283;-87
2023/01/05 06:32:40;;;;;;;3.80;1.70;;;;;;;;;;4930019;28;20270;-84
2023/01/05 06:35:08;;;;;;;3.83;1.67;;;;;;;;;;4947789;29;20221;-85
2023/01/05 06:37:36;;;;;;;10.97;2.17;;;;;;;;;;4945679;29;20214;-85
2023/01/05 06:40:02;;;;;;;5.80;1.83;;;;;;;;;;4932974;28;20230;-87
2023/01/05 06:42:27;;;;;;;4.73;1.83;;;;;;;;;;4948235;29;20214;-84
2023/01/05 06:44:53;;;;;;;5.07;1.77;;;;;;;;;;4933368;29;20215;-88
2023/01/05 06:47:19;;;;;;;9.10;1.90;;;;;;;;;;4938165;29;20231;-87
2023/01/05 06:49:46;;;;;;;4.93;1.70;;;;;;;;;;4918579;29;20344;-84
2023/01/05 06:52:12;;;;;;;5.03;1.90;;;;;;;;;;4925028;29;20693;-88
2023/01/05 06:54:37;;;;;;;6.27;1.87;;;;;;;;;;4924120;29;20784;-88
2023/01/05 06:57:03;;;;;;;10.67;2.07;;;;;;;;;;4922642;29;20757;-88
2023/01/05 06:59:28;;;;;;;9.27;2.13;;;;;;;;;;4925807;28;20235;-87
2023/01/05 07:01:54;;;;;;;7.33;2.13;;;;;;;;;;4929349;28;20226;-86
2023/01/05 07:04:20;;;;;;;7.33;1.90;;;;;;;;;;4915405;29;20241;-88
2023/01/05 07:06:45;;;;;;;10.17;2.60;;;;;;;;;;4907364;29;20220;-88
2023/01/05 07:09:17;;;;;;;7.77;2.20;;;;;;;;;;4906368;29;20258;-89
2023/01/05 07:11:42;;;;;;;7.30;2.37;;;;;;;;;;4912466;29;20235;-85
2023/01/05 07:14:10;;;;;;;8.87;2.53;;;;;;;;;;4911604;29;20234;-90
2023/01/05 07:16:36;;;;;;;9.27;2.50;;;;;;;;;;4910138;29;20215;-87
2023/01/05 07:19:06;;;;;;;5.73;2.10;;;;;;;;;;4928695;29;20313;-83
2023/01/05 07:21:32;;;;;;;4.43;1.83;;;;;;;;;;4937111;28;20254;-85
2023/01/05 07:24:00;;;;;;;6.17;2.00;;;;;;;;;;4928433;28;20234;-87
2023/01/05 07:26:25;;;;;;;5.03;1.63;;;;;;;;;;4909637;29;20216;-89
2023/01/05 07:28:51;;;;;;;5.33;1.93;;;;;;;;;;4905497;29;20246;-89
2023/01/05 07:31:17;;;;;;;8.03;2.00;;;;;;;;;;4905308;29;20219;-87
2023/01/05 07:33:42;;;;;;;5.33;1.83;;;;;;;;;;4910056;29;20698;-85
2023/01/05 07:36:08;;;;;;;3.23;1.60;;;;;;;;;;4942876;29;20229;-89
2023/01/05 07:38:38;;;;;;;4.27;1.40;;;;;;;;;;4909278;29;20226;-87
2023/01/05 07:41:04;;;;;;;7.53;1.93;;;;;;;;;;4933260;29;20363;-86
2023/01/05 07:43:30;;;;;;;7.60;1.57;;;;;;;;;;4930354;28;20223;-87
2023/01/05 07:45:59;;;;;;;4.33;1.53;;;;;;;;;;4935376;29;20222;-87
2023/01/05 07:48:28;;;;;;;5.93;1.87;;;;;;;;;;4922820;29;20254;-87
2023/01/05 07:51:01;;;;;;;5.90;1.70;;;;;;;;;;4936152;29;20278;-86
2023/01/05 07:53:27;;;;;;;3.77;1.83;;;;;;;;;;4903948;29;20231;-85
2023/01/05 07:55:57;;;;;;;3.73;1.70;;;;;;;;;;4909828;29;20219;-88
2023/01/05 07:58:28;;;;;;;5.07;1.50;;;;;;;;;;4902117;29;20638;-90
2023/01/05 08:00:56;;;;;;;5.37;1.43;;;;;;;;;;4923759;29;20222;-85
2023/01/05 08:03:24;;;;;;;5.20;1.60;;;;;;;;;;4913786;29;20243;-84
2023/01/05 08:05:49;;;;;;;5.40;1.43;;;;;;;;;;4911118;29;20222;-86
2023/01/05 08:08:15;;;;;;;4.33;1.40;;;;;;;;;;4915231;29;20231;-86
2023/01/05 08:10:41;;;;;;;6.27;2.17;;;;;;;;;;4923396;29;20686;-87
2023/01/05 08:15:55;;;;;;;6.23;2.63;;;;;;;;;;4922595;29;20302;-87
2023/01/05 08:18:23;;;;;;;4.93;2.10;;;;;;;;;;4902563;29;20266;-88
2023/01/05 08:20:58;;;;;;;9.43;2.60;;;;;;;;;;4917774;28;20219;-86
2023/01/05 08:23:24;;;;;;;7.17;1.60;;;;;;;;;;4913770;28;20237;-86
2023/01/05 08:25:55;;;;;;;9.20;2.10;;;;;;;;;;4920625;29;20235;-88
2023/01/05 08:28:24;;;;;;;7.57;1.67;;;;;;;;;;4910336;29;20235;-87
2023/01/05 08:30:49;;;;;;;3.27;1.30;;;;;;;;;;4898017;29;20243;-87
2023/01/05 08:33:15;;;;;;;3.40;1.30;;;;;;;;;;4910375;29;20216;-87
2023/01/05 08:35:41;;;;;;;8.57;1.70;;;;;;;;;;4919230;29;20223;-85
2023/01/05 08:38:07;;;;;;;5.43;1.60;;;;;;;;;;4895367;29;20270;-87
2023/01/05 08:40:34;;;;;;;5.33;1.37;;;;;;;;;;4910144;29;20464;-84
2023/01/05 08:43:02;;;;;;;2.43;1.40;;;;;;;;;;4906505;29;20257;-85
2023/01/05 08:45:28;;;;;;;4.80;1.20;;;;;;;;;;4922787;29;20230;-87
2023/01/05 08:47:54;;;;;;;2.10;1.10;;;;;;;;;;4904636;29;20235;-85
2023/01/05 08:50:19;;;;;;;5.47;1.60;;;;;;;;;;4921325;29;20214;-90
2023/01/05 08:52:47;;;;;;;3.00;1.10;;;;;;;;;;4932493;29;20252;-85
2023/01/05 08:55:13;;;;;;;4.70;1.43;;;;;;;;;;4905648;29;20258;-86
2023/01/05 08:57:39;;;;;;;4.33;1.83;;;;;;;;;;4911124;29;20230;-86
2023/01/05 09:00:08;;;;;;;6.27;2.30;;;;;;;;;;4921005;29;20219;-88
2023/01/05 09:02:33;;;;;;;4.23;1.33;;;;;;;;;;4917922;29;20238;-88
2023/01/05 09:04:59;;;;;;;6.00;1.57;;;;;;;;;;4904516;29;20247;-88
2023/01/05 09:07:27;;;;;;;5.53;1.43;;;;;;;;;;4939352;29;20233;-87
2023/01/05 09:09:52;;;;;;;8.07;1.40;;;;;;;;;;4920705;29;20227;-86
2023/01/05 09:12:18;;;;;;;2.90;1.37;;;;;;;;;;4902763;29;20223;-86
2023/01/05 09:14:44;;;;;;;4.27;1.30;;;;;;;;;;4921377;29;20285;-86
2023/01/05 09:17:09;;;;;;;5.33;1.50;;;;;;;;;;4933792;29;20234;-85
2023/01/05 09:19:35;;;;;;;3.20;1.20;;;;;;;;;;4923269;29;20223;-88
2023/01/05 09:22:00;;;;;;;2.83;1.20;;;;;;;;;;4934349;28;20232;-86
2023/01/05 09:24:26;;;;;;;6.57;1.90;;;;;;;;;;4899265;29;20230;-88
2023/01/05 09:26:51;;;;;;;6.50;1.67;;;;;;;;;;4897667;29;20218;-84
2023/01/05 09:29:19;;;;;;;3.53;1.70;;;;;;;;;;4903527;29;20231;-90
2023/01/05 09:31:47;;;;;;;2.07;1.33;;;;;;;;;;4912973;29;20246;-88
2023/01/05 09:34:13;;;;;;;5.80;1.67;;;;;;;;;;4910239;29;20602;-85
2023/01/05 09:36:39;;;;;;;5.13;1.50;;;;;;;;;;4936850;29;20230;-89
2023/01/05 09:39:05;;;;;;;2.77;1.20;;;;;;;;;;4923670;29;20241;-85
2023/01/05 09:41:35;;;;;;;6.73;1.40;;;;;;;;;;4905470;28;20245;-85
2023/01/05 09:44:20;;;;;;;7.60;1.20;;;;;;;;;;4925693;29;20226;-87
2023/01/05 09:46:45;;;;;;;5.23;1.60;;;;;;;;;;4942555;29;20226;-86
2023/01/05 09:49:19;;;;;;;3.63;1.30;;;;;;;;;;4911477;29;20253;-85
2023/01/05 09:51:47;;;;;;;3.43;1.30;;;;;;;;;;4892910;29;20223;-88
2023/01/05 09:54:16;;;;;;;6.77;1.67;;;;;;;;;;4915362;29;20231;-88
2023/01/05 09:56:45;;;;;;;5.77;1.30;;;;;;;;;;4925026;29;20223;-88
2023/01/05 09:59:30;;;;;;;5.03;1.37;;;;;;;;;;4924716;29;20239;-87
2023/01/05 10:01:58;;;;;;;3.73;1.20;;;;;;;;;;4927064;29;20253;-85
2023/01/05 10:04:24;;;;;;;4.57;1.23;;;;;;;;;;4922084;29;20282;-84
2023/01/05 10:06:52;;;;;;;6.23;1.10;;;;;;;;;;4927788;29;20223;-89
2023/01/05 10:09:22;;;;;;;3.60;1.40;;;;;;;;;;4931191;29;20710;-88
2023/01/05 10:15:06;;;;;;;4.63;1.57;;;;;;;;;;4929809;29;20234;-88
2023/01/05 10:17:34;;;;;;;5.57;1.50;;;;;;;;;;4950184;29;20246;-87
2023/01/05 10:20:02;;;;;;;7.00;1.60;;;;;;;;;;4930893;28;20218;-86
2023/01/05 10:22:40;;;;;;;7.00;1.53;;;;;;;;;;4911062;29;20287;-87
2023/01/05 10:25:13;;;;;;;5.93;1.57;;;;;;;;;;4926519;29;20231;-88
2023/01/05 10:27:46;;;;;;;5.13;1.57;;;;;;;;;;4941706;29;20583;-86
2023/01/05 10:30:37;;;;;;;4.20;1.27;;;;;;;;;;4927490;29;20587;-85
2023/01/05 10:33:14;;;;;;;6.93;1.83;;;;;;;;;;4923340;29;20266;-87
2023/01/05 10:36:31;;;;;;;3.53;1.20;;;;;;;;;;4916948;29;20214;-86
2023/01/05 10:39:05;;;;;;;5.70;1.30;;;;;;;;;;4884689;29;20251;-87
2023/01/05 10:41:39;;;;;;;5.67;1.50;;;;;;;;;;4934692;29;20265;-88
2023/01/05 10:44:16;;;;;;;4.63;1.50;;;;;;;;;;4928144;29;20376;-87
2023/01/05 10:46:45;;;;;;;4.77;1.40;;;;;;;;;;4943939;28;20612;-86
2023/01/05 10:49:17;;;;;;;3.73;1.30;;;;;;;;;;4914039;29;20249;-86
2023/01/05 10:51:45;;;;;;;6.13;1.43;;;;;;;;;;4928166;28;20250;-87
2023/01/05 10:54:32;;;;;;;7.00;1.60;;;;;;;;;;4931335;29;20227;-87
2023/01/05 10:57:32;;;;;;;3.47;1.10;;;;;;;;;;4932956;29;20717;-88
2023/01/05 11:00:12;;;;;;;5.30;1.57;;;;;;;;;;4951278;29;20307;-87
2023/01/05 11:02:42;;;;;;;5.37;1.60;;;;;;;;;;4927085;29;20219;-86
2023/01/05 11:05:10;;;;;;;6.47;1.73;;;;;;;;;;4914399;29;20251;-87
2023/01/05 11:08:01;;;;;;;5.53;1.50;;;;;;;;;;4937810;29;20693;-88
2023/01/05 11:10:28;;;;;;;4.60;2.07;;;;;;;;;;4908246;29;20223;-87
2023/01/05 11:13:02;;;;;;;6.53;1.50;;;;;;;;;;4922415;29;20222;-85
2023/01/05 11:15:33;;;;;;;6.63;1.60;;;;;;;;;;4929411;28;20231;-87
2023/01/05 11:17:58;;;;;;;3.53;1.03;;;;;;;;;;4908173;29;20227;-86
2023/01/05 11:20:24;;;;;;;4.23;1.10;;;;;;;;;;4905392;29;20219;-85
2023/01/05 11:22:52;;;;;;;3.93;1.30;;;;;;;;;;4911389;29;20210;-87
2023/01/05 11:25:22;;;;;;;3.83;1.10;;;;;;;;;;4902189;29;20235;-87
2023/01/05 11:28:17;;;;;;;5.97;1.80;;;;;;;;;;4910633;29;20290;-86
2023/01/05 11:31:02;;;;;;;4.73;1.40;;;;;;;;;;4917433;29;20714;-87
2023/01/05 11:33:28;;;;;;;4.87;1.50;;;;;;;;;;4925153;28;20322;-87
2023/01/05 11:35:57;;;;;;;4.63;1.30;;;;;;;;;;4905849;29;20670;-87
2023/01/05 11:38:26;;;;;;;6.00;1.77;;;;;;;;;;4897989;29;20231;-87
2023/01/05 11:40:55;;;;;;;4.63;1.20;;;;;;;;;;4915949;29;20233;-87
2023/01/05 11:43:20;;;;;;;8.40;1.47;;;;;;;;;;4914365;29;20598;-87
2023/01/05 11:45:49;;;;;;;4.23;1.47;;;;;;;;;;4913085;29;20220;-86
2023/01/05 11:48:18;;;;;;;3.83;1.40;;;;;;;;;;4905587;29;20690;-87
2023/01/05 11:50:49;;;;;;;6.90;1.43;;;;;;;;;;4921390;29;20231;-88
2023/01/05 11:53:30;;;;;;;3.93;1.17;;;;;;;;;;4918201;29;20713;-86
2023/01/05 11:55:59;;;;;;;2.87;1.13;;;;;;;;;;4943585;29;20834;-87
2023/01/05 11:58:28;;;;;;;5.43;1.70;;;;;;;;;;4942192;29;20219;-87
2023/01/05 12:01:12;;;;;;;8.33;1.50;;;;;;;;;;4931770;29;20305;-87
2023/01/05 12:03:57;;;;;;;4.20;1.50;;;;;;;;;;4926002;29;20235;-88
2023/01/05 12:07:03;;;;;;;6.77;1.80;;;;;;;;;;4927235;29;20223;-86
2023/01/05 12:09:33;;;;;;;3.23;1.53;;;;;;;;;;4906203;29;20294;-88
2023/01/05 12:12:17;;;;;;;4.37;1.37;;;;;;;;;;4908749;29;20278;-88
2023/01/05 12:14:56;;;;;;;2.60;1.20;;;;;;;;;;4952591;28;20301;-88
2023/01/05 12:17:29;;;;;;;5.27;1.30;;;;;;;;;;4929788;29;20234;-87
2023/01/05 12:20:16;;;;;;;4.13;1.10;;;;;;;;;;4908023;28;20246;-87
2023/01/05 12:23:23;;;;;;;3.93;1.10;;;;;;;;;;4930296;29;20241;-87
2023/01/05 12:26:28;;;;;;;5.97;1.70;;;;;;;;;;4919094;29;20313;-89
2023/01/05 12:29:00;;;;;;;4.10;1.53;;;;;;;;;;4893354;29;20658;-87
2023/01/05 12:31:59;;;;;;;3.60;1.70;;;;;;;;;;4934675;29;20690;-88
2023/01/05 12:34:57;;;;;;;3.13;1.17;;;;;;;;;;4913734;29;20294;-88
2023/01/05 12:38:01;;;;;;;5.73;1.40;;;;;;;;;;4904889;29;20290;-89
2023/01/05 12:40:38;;;;;;;1.63;0.97;;;;;;;;;;4945373;28;20233;-87
2023/01/05 12:43:05;;;;;;;4.83;1.37;;;;;;;;;;4942499;29;20236;-87
2023/01/05 12:45:47;;;;;;;2.17;1.07;;;;;;;;;;4956994;28;20239;-85
2023/01/05 12:48:16;;;;;;;5.60;1.23;;;;;;;;;;4954625;29;20219;-88
2023/01/05 12:51:01;;;;;;;3.73;1.20;;;;;;;;;;4926069;28;20223;-89
2023/01/05 12:53:41;;;;;;;3.57;1.20;;;;;;;;;;4923491;28;20211;-88
2023/01/05 12:56:24;;;;;;;3.43;1.07;;;;;;;;;;4967000;28;20210;-86
2023/01/05 12:59:04;;;;;;;3.70;1.10;;;;;;;;;;4926207;28;20211;-85
2023/01/05 13:01:30;;;;;;;3.60;1.33;;;;;;;;;;4920554;29;20230;-85
2023/01/05 13:04:01;;;;;;;5.03;1.37;;;;;;;;;;4924523;28;20215;-88
2023/01/05 13:06:30;;;;;;;4.00;1.03;;;;;;;;;;4946096;28;20701;-89
2023/01/05 13:09:11;;;;;;;6.80;1.73;;;;;;;;;;4940105;29;20227;-86
2023/01/05 13:11:43;;;;;;;7.77;1.33;;;;;;;;;;4931930;28;20230;-86
2023/01/05 13:14:23;;;;;;;5.47;1.20;;;;;;;;;;4914168;28;20215;-85
2023/01/05 13:16:53;;;;;;;4.60;1.20;;;;;;;;;;4950870;28;20222;-86
2023/01/05 13:19:45;;;;;;;7.77;1.83;;;;;;;;;;4938980;29;20290;-85
2023/01/05 13:22:20;;;;;;;5.53;1.47;;;;;;;;;;4934130;29;20233;-84
2023/01/05 13:25:17;;;;;;;5.97;1.40;;;;;;;;;;4939549;28;20294;-87
2023/01/05 13:27:45;;;;;;;3.93;1.03;;;;;;;;;;4946861;28;20246;-86
2023/01/05 13:30:31;;;;;;;3.20;1.10;;;;;;;;;;4939509;29;20280;-85
2023/01/05 13:33:35;;;;;;;4.00;1.17;;;;;;;;;;4942021;29;20223;-86
2023/01/05 13:36:02;;;;;;;3.30;1.20;;;;;;;;;;4942451;28;20302;-87
2023/01/05 13:38:50;;;;;;;3.07;1.40;;;;;;;;;;4940404;29;20243;-84
2023/01/05 13:41:22;;;;;;;5.23;1.70;;;;;;;;;;4952869;29;20235;-87
2023/01/05 13:44:10;;;;;;;6.33;1.67;;;;;;;;;;4947290;28;20243;-86
2023/01/05 13:46:48;;;;;;;4.73;1.60;;;;;;;;;;4925157;28;20219;-83
2023/01/05 13:49:26;;;;;;;4.50;1.43;;;;;;;;;;4971073;28;20235;-88
2023/01/05 13:51:51;;;;;;;4.17;1.57;;;;;;;;;;4951718;29;20231;-87
2023/01/05 13:54:21;;;;;;;6.17;1.67;;;;;;;;;;4928701;23;20236;-77
2023/01/05 13:56:50;;;;;;;4.63;1.27;;;;;;;;;;4912395;29;20264;-78
2023/01/05 13:59:31;;;;;;;5.23;1.33;;;;;;;;;;4899905;29;20224;-78
2023/01/05 14:01:59;;;;;;;5.37;1.73;;;;;;;;;;4899658;29;20248;-77
2023/01/05 14:04:26;;;;;;;5.33;1.70;;;;;;;;;;4879548;29;20229;-77
2023/01/05 14:07:15;;;;;;;5.20;1.53;;;;;;;;;;4882764;29;20235;-79
2023/01/05 14:09:54;;;;;;;7.70;4.00;;;;;;;;;;4887027;29;20240;-78
2023/01/05 14:12:27;;;;;;;11.07;7.47;;;;;;;;;;4889625;29;21368;-79
2023/01/05 14:15:08;;;;;;;10.03;2.63;;;;;;;;;;4911831;29;20300;-79
2023/01/05 14:17:52;;;;;;;5.40;2.83;;;;;;;;;;4912106;29;20359;-79
2023/01/05 14:20:48;;;;;;;10.20;7.33;;;;;;;;;;4910752;29;20225;-79
2023/01/05 14:23:22;;;;;;;11.23;7.23;;;;;;;;;;4897892;29;20253;-78
2023/01/05 14:25:57;;;;;;;4.60;1.57;;;;;;;;;;4904066;29;21161;-77
2023/01/05 14:28:34;;;;;;;8.10;1.77;;;;;;;;;;4891537;29;20579;-79
2023/01/05 14:31:20;;;;;;;5.77;1.27;;;;;;;;;;4903433;29;20261;-78
2023/01/05 14:33:57;;;;;;;8.27;1.43;;;;;;;;;;4911534;29;20228;-78
2023/01/05 14:36:22;;;;;;;4.27;1.47;;;;;;;;;;4917557;29;20235;-79
2023/01/05 14:38:50;;;;;;;4.23;1.60;;;;;;;;;;4897516;29;20601;-79
2023/01/05 14:41:23;;;;;;;5.40;1.40;;;;;;;;;;4902735;29;20292;-78
2023/01/05 14:44:18;;;;;;;5.17;1.27;;;;;;;;;;4908337;29;20311;-78
2023/01/05 14:47:02;;;;;;;7.13;1.17;;;;;;;;;;4903068;29;20235;-77
2023/01/05 14:49:31;;;;;;;5.90;1.37;;;;;;;;;;4905218;29;20242;-77
2023/01/05 14:52:02;;;;;;;5.60;1.43;;;;;;;;;;4910082;29;20319;-78
2023/01/05 14:54:40;;;;;;;4.97;1.60;;;;;;;;;;4901049;29;21076;-79
2023/01/05 14:57:23;;;;;;;5.27;1.40;;;;;;;;;;4940079;28;20236;-77
2023/01/05 14:59:59;;;;;;;4.37;1.50;;;;;;;;;;4912662;28;20232;-78
2023/01/05 15:02:27;;;;;;;7.33;1.43;;;;;;;;;;4949404;28;20231;-78
2023/01/05 15:04:53;;;;;;;6.67;1.30;;;;;;;;;;4939168;29;20233;-78
2023/01/05 15:07:39;;;;;;;5.27;1.67;;;;;;;;;;4943451;28;20231;-77
2023/01/05 15:10:14;;;;;;;4.77;1.73;;;;;;;;;;4938232;29;20231;-76
2023/01/05 15:13:07;;;;;;;5.20;1.60;;;;;;;;;;4929775;28;20241;-77
2023/01/05 15:15:43;;;;;;;6.13;1.53;;;;;;;;;;4939385;28;20261;-78
2023/01/05 15:18:14;;;;;;;5.57;2.37;;;;;;;;;;4912312;28;20215;-78
2023/01/05 15:21:04;;;;;;;7.57;2.33;;;;;;;;;;4938500;28;20671;-78
2023/01/05 15:23:57;;;;;;;8.90;2.70;;;;;;;;;;4924993;29;20220;-76
2023/01/05 15:27:00;;;;;;;4.07;2.13;;;;;;;;;;4954617;28;20338;-78
2023/01/05 15:30:05;;;;;;;4.97;2.50;;;;;;;;;;4957777;28;20291;-79
2023/01/05 15:32:34;;;;;;;3.77;2.00;;;;;;;;;;4947224;28;20228;-78
2023/01/05 15:35:07;;;;;;;3.57;2.13;;;;;;;;;;4931172;29;20311;-79
2023/01/05 15:37:34;;;;;;;3.63;1.70;;;;;;;;;;4935937;28;20232;-78
2023/01/05 15:40:03;;;;;;;5.67;2.20;;;;;;;;;;4924773;29;20227;-77
2023/01/05 15:42:52;;;;;;;4.80;1.90;;;;;;;;;;4931700;29;20238;-77
2023/01/05 15:45:27;;;;;;;7.10;1.70;;;;;;;;;;4935552;28;20308;-77
2023/01/05 15:47:54;;;;;;;3.60;1.60;;;;;;;;;;4949661;28;20240;-77